Stations météo

réclame
Mon MeteoGroup
Ernage, Belgique (6459): Température de l'air & dewpoint: 17.07.2018 09:00:00 - 23.07.2018 09:00:00 (CEST)Ernage, Belgique (6459): Vitesse du vent & gusts: 17.07.2018 09:00:00 - 23.07.2018 09:00:00 (CEST)Ernage, Belgique (6459): Direction du vent: 17.07.2018 09:00:00 - 23.07.2018 09:00:00 (CEST)Ernage, Belgique (6459): reduced air pressure: 17.07.2018 09:00:00 - 23.07.2018 09:00:00 (CEST)Ernage, Belgique (6459): Ensoleillement: 17.07.2018 09:00:00 - 23.07.2018 09:00:00 (CEST)Ernage, Belgique (6459): Quantités de précipitations: 17.07.2018 09:00:00 - 23.07.2018 09:00:00 (CEST)
Date & Time tt [°C] td [°C] ff [km/h] ff [knt] fx [km/h] fx [knt] dd ppp [hPa] sd [min] rr [mm]
23.07.2018 09:00:00 21,3 13,8 11 6 14 8 SW 1018,1 2 0,0
23.07.2018 08:00:00 20,2 14,5 7 4 13 7 SW 1018,1 0 0,0
23.07.2018 07:00:00 19,1 13,8 9 5 13 7 SSW 1017,9 0 0,0
23.07.2018 06:00:00 18,7 13,7 4 2 8 5 S 1017,8 0 0,0
23.07.2018 05:00:00 18,4 13,8 4 2 6 4 SSE 1017,7 0 0,0
23.07.2018 04:00:00 18,1 13,8 4 2 4 2 SSW 1017,7 0 0,0
23.07.2018 03:00:00 16,3 11,8 4 2 4 2 SSE 1018,0 0 0,0
23.07.2018 02:00:00 18,0 12,5 4 2 3 2 S 1017,8 0 0,0
23.07.2018 01:00:00 19,6 12,2 0 0 8 5 N 1017,7 0 0,0
23.07.2018 00:00:00 20,0 12,2 8 4 9 5 N 1017,5 0 0,0
22.07.2018 23:00:00 21,2 12,0 7 4 16 8 N 1017,1 0 0,0
22.07.2018 22:00:00 22,7 11,6 12 6 21 11 NNW 1016,4 0 0,0
22.07.2018 21:00:00 23,8 12,1 16 9 28 15 NNW 1015,8 0 0,0
22.07.2018 20:00:00 25,5 12,1 22 12 29 15 N 1015,2 9 0,0
22.07.2018 19:00:00 26,5 11,5 16 9 22 12 NNW 1014,7 7 0,0
22.07.2018 18:00:00 27,8 10,1 13 7 22 12 W 1014,7 51 0,0
22.07.2018 17:00:00 27,1 9,0 8 4 28 15 NNW 1015,1 55 0,0
22.07.2018 16:00:00 26,9 7,8 9 5 29 16 NNW 1015,4 55 0,0
22.07.2018 15:00:00 27,0 7,7 4 2 22 12 NE 1015,3 60 0,0
22.07.2018 14:00:00 26,2 6,6 7 4 18 10 WNW 1015,5 60 0,0
22.07.2018 13:00:00 25,4 6,9 8 4 16 9 WNW 1016,1 60 0,0
22.07.2018 12:00:00 23,9 6,1 6 3 15 8 WSW 1016,3 60 0,0
22.07.2018 11:00:00 22,4 6,3 6 3 10 6 WSW 1016,5 60 0,0
22.07.2018 10:00:00 20,5 9,4 6 3 12 6 W 1016,4 60 0,0
22.07.2018 09:00:00 17,8 11,0 8 4 10 5 WSW 1016,6 60 0,0
22.07.2018 08:00:00 15,1 11,3 4 2 8 4 SSW 1016,5 60 0,0
22.07.2018 07:00:00 11,2 9,4 4 2 5 3 SSE 1016,3 16 0,0
22.07.2018 06:00:00 11,1 8,9 6 3 8 4 WSW 1016,0 0 0,0
22.07.2018 05:00:00 12,1 9,0 7 4 10 5 W 1015,8 0 0,0
22.07.2018 04:00:00 12,7 9,9 4 2 9 5 SW 1015,5 0 0,0
22.07.2018 03:00:00 12,5 8,9 9 5 11 6 W 1015,3 0 0,0
22.07.2018 02:00:00 14,2 9,2 7 4 10 5 NNW 1015,4 0 0,0
22.07.2018 01:00:00 14,7 8,9 9 5 13 7 NW 1015,3 0 0,0
22.07.2018 00:00:00 17,6 9,9 12 6 15 8 NNW 1014,9 0 0,0
21.07.2018 23:00:00 19,4 10,0 14 7 20 11 NNW 1014,5 0 0,0
21.07.2018 22:00:00 21,6 10,2 15 8 23 12 NNW 1013,8 9 0,0
21.07.2018 21:00:00 23,8 10,2 14 8 22 12 NNW 1013,1 51 0,0
21.07.2018 20:00:00 24,4 10,4 14 8 - - NW 1012,7 - -
21.07.2018 19:00:00 23,8 11,0 19 10 26 14 NNW 1012,6 1 0,0
21.07.2018 18:00:00 23,1 12,4 13 7 18 10 NW 1012,6 0 0,1
21.07.2018 17:00:00 22,4 13,3 8 4 15 8 WNW 1012,6 0 0,2
21.07.2018 16:00:00 24,7 11,3 10 5 16 9 NNE 1012,2 0 0,0
21.07.2018 15:00:00 25,7 10,2 11 6 30 16 W 1012,1 37 0,0
21.07.2018 14:00:00 25,7 11,6 11 6 23 12 N 1012,2 44 0,0
21.07.2018 13:00:00 24,9 11,2 9 5 21 11 NW 1012,2 60 0,0
21.07.2018 12:00:00 24,2 11,8 13 7 19 10 NW 1012,2 60 0,0
21.07.2018 11:00:00 21,7 13,6 7 4 13 7 WNW 1012,2 60 0,0
21.07.2018 10:00:00 20,0 14,2 7 4 11 6 NW 1012,6 49 0,0
21.07.2018 09:00:00 17,6 14,1 5 3 8 5 WNW 1012,5 0 0,0
21.07.2018 08:00:00 16,6 13,4 4 2 5 3 WNW 1012,3 0 0,0
21.07.2018 07:00:00 15,5 12,7 4 2 8 4 WSW 1012,0 0 0,0
21.07.2018 06:00:00 15,3 12,0 4 2 10 5 NW 1011,9 0 0,0
21.07.2018 05:00:00 16,0 11,8 9 5 11 6 NW 1011,8 0 0,0
21.07.2018 04:00:00 17,2 11,9 9 5 12 6 NNE 1011,7 0 0,0
21.07.2018 03:00:00 17,3 11,4 9 5 12 6 NNW 1012,3 0 0,0
21.07.2018 02:00:00 17,2 10,8 11 6 11 6 NNW 1012,7 0 0,0
21.07.2018 01:00:00 15,5 9,1 9 5 14 7 NNW 1012,5 0 0,0
21.07.2018 00:00:00 16,9 8,7 11 6 11 6 NNW 1012,3 - -
20.07.2018 23:00:00 18,3 9,4 6 3 14 7 NW 1012,7 0 0,0
20.07.2018 22:00:00 19,8 9,0 10 5 16 9 NNW 1012,5 0 0,0
20.07.2018 21:00:00 20,8 9,9 9 5 15 8 NW 1012,5 0 0,0
20.07.2018 20:00:00 21,4 9,3 11 6 16 9 NNW 1012,6 0 0,0
20.07.2018 19:00:00 21,5 9,9 15 8 23 13 NNW 1012,9 0 0,0
20.07.2018 18:00:00 21,8 11,3 13 7 23 12 WNW 1013,2 0 0,0
20.07.2018 17:00:00 21,3 11,5 14 7 30 16 W 1013,8 0 0,1
20.07.2018 16:00:00 24,7 7,4 12 7 18 10 NW 1013,7 0 0,0
20.07.2018 15:00:00 25,4 7,4 11 6 22 12 NW 1013,7 0 0,0
20.07.2018 14:00:00 25,3 9,0 11 6 19 10 NNE 1013,9 30 0,0
20.07.2018 13:00:00 25,4 10,2 11 6 19 10 N 1014,2 60 0,0
20.07.2018 12:00:00 24,6 10,8 9 5 19 10 NE 1014,6 60 0,0
20.07.2018 11:00:00 22,9 9,7 11 6 - - N 1014,8 - -
20.07.2018 10:00:00 - - - - - - - - - -
20.07.2018 09:00:00 18,9 12,8 6 3 9 5 NE 1015,3 45 0,0
20.07.2018 08:00:00 16,0 12,2 4 2 10 5 ENE 1015,8 45 0,0
20.07.2018 07:00:00 12,5 9,8 4 2 10 6 NW 1016,0 26 0,0
20.07.2018 06:00:00 11,9 8,7 8 4 11 6 NNW 1016,1 0 0,0
20.07.2018 05:00:00 12,1 8,3 4 2 9 5 ENE 1016,2 0 0,0
20.07.2018 04:00:00 13,1 8,0 6 4 10 5 NE 1016,6 0 0,0
20.07.2018 03:00:00 14,0 7,5 7 4 12 6 N 1017,0 0 0,0
20.07.2018 02:00:00 14,9 8,0 7 4 13 7 NE 1017,5 0 0,0
20.07.2018 01:00:00 15,6 7,7 7 4 15 8 N 1017,6 0 0,0
20.07.2018 00:00:00 16,0 8,5 10 5 20 11 N 1017,6 0 0,0
19.07.2018 23:00:00 18,1 9,3 14 8 20 11 NNW 1017,4 0 0,0
19.07.2018 22:00:00 20,3 10,6 13 7 17 9 NNW 1017,1 8 0,0
19.07.2018 21:00:00 23,4 9,9 12 7 19 10 NNW 1016,7 46 0,0
19.07.2018 20:00:00 25,8 8,7 11 6 18 10 N 1016,3 60 0,0
19.07.2018 19:00:00 26,7 8,5 11 6 20 11 NNW 1016,1 60 0,0
19.07.2018 18:00:00 26,6 8,4 7 4 21 11 NNE 1016,7 54 0,0
19.07.2018 17:00:00 26,8 8,9 7 4 - - NE 1017,2 - -
19.07.2018 16:00:00 26,0 8,9 10 5 18 10 NNW 1017,5 32 0,0
19.07.2018 15:00:00 25,9 8,9 7 4 18 10 ENE 1017,7 - -
19.07.2018 14:00:00 25,2 9,6 7 4 16 9 ENE 1018,0 57 0,0
19.07.2018 13:00:00 25,2 11,0 6 4 16 9 ENE 1018,5 58 0,0
19.07.2018 12:00:00 23,9 11,6 9 5 22 12 ENE 1018,7 60 0,0
19.07.2018 11:00:00 22,6 12,2 10 5 16 9 N 1019,1 60 0,0
19.07.2018 10:00:00 20,3 12,8 9 5 14 8 NNW 1019,3 60 0,0
19.07.2018 09:00:00 18,4 12,4 9 5 13 7 NNW 1019,4 60 0,0
19.07.2018 08:00:00 15,9 11,8 7 4 11 6 NNW 1019,5 60 0,0
19.07.2018 07:00:00 11,7 10,2 8 5 14 8 NW 1019,6 27 0,0
19.07.2018 06:00:00 11,6 9,8 4 2 7 4 SE 1019,3 0 0,0
19.07.2018 05:00:00 11,9 10,1 5 3 7 4 SE 1019,4 0 0,0
19.07.2018 04:00:00 12,5 9,4 4 2 8 4 SE 1019,6 0 0,0
19.07.2018 03:00:00 14,7 10,8 7 4 9 5 NE 1019,8 0 0,0
19.07.2018 02:00:00 15,0 10,7 7 4 18 10 NE 1020,0 0 0,0
19.07.2018 01:00:00 16,7 11,3 12 7 20 11 N 1019,7 0 0,0
19.07.2018 00:00:00 17,1 11,8 11 6 18 10 N 1019,5 0 0,0
18.07.2018 23:00:00 17,2 11,4 13 7 15 8 N 1019,2 0 0,0
18.07.2018 22:00:00 18,7 9,9 11 6 18 10 N 1018,5 8 0,0
18.07.2018 21:00:00 22,8 10,1 13 7 19 10 N 1018,1 60 0,0
18.07.2018 20:00:00 24,0 9,1 18 10 22 12 N 1017,9 59 0,0
18.07.2018 19:00:00 24,9 8,2 4 2 23 13 N 1017,8 60 0,0
18.07.2018 18:00:00 24,7 8,3 9 5 18 10 WNW 1018,0 52 0,0
18.07.2018 17:00:00 24,7 7,8 10 6 26 14 WSW 1018,3 56 0,0
18.07.2018 16:00:00 24,8 7,8 16 9 31 17 W 1018,6 53 0,0
18.07.2018 15:00:00 25,0 8,0 18 10 33 18 WNW 1018,6 47 0,0
18.07.2018 14:00:00 24,8 8,0 18 10 35 19 WNW 1018,8 60 0,0
18.07.2018 13:00:00 23,7 8,0 16 9 30 16 W 1019,1 60 0,0
18.07.2018 12:00:00 22,9 8,2 11 6 23 13 W 1019,2 60 0,0
18.07.2018 11:00:00 21,6 8,5 11 6 23 12 WSW 1019,5 60 0,0
18.07.2018 10:00:00 19,6 10,2 6 4 16 9 W 1019,6 60 0,0
18.07.2018 09:00:00 17,0 11,4 8 4 10 6 WNW 1019,7 49 0,0
18.07.2018 08:00:00 14,1 10,6 7 4 11 6 SW 1019,6 52 0,0
18.07.2018 07:00:00 11,2 9,8 4 2 6 3 SSE 1019,6 32 0,0
18.07.2018 06:00:00 9,9 8,0 0 0 5 3 N 1019,4 0 0,0
18.07.2018 05:00:00 9,9 7,7 4 2 6 3 E 1019,5 0 0,0
18.07.2018 04:00:00 11,3 8,7 4 2 6 3 E 1019,3 0 0,0
18.07.2018 03:00:00 11,1 7,2 4 2 3 2 SE 1019,6 0 0,0
18.07.2018 02:00:00 12,2 8,0 0 0 4 2 N 1019,4 0 0,0
18.07.2018 01:00:00 13,9 8,3 4 2 4 2 ESE 1019,3 0 0,0
18.07.2018 00:00:00 14,8 7,7 4 2 12 7 NNW 1019,0 0 0,0
17.07.2018 23:00:00 16,8 7,9 6 3 11 6 W 1018,6 0 0,0
17.07.2018 22:00:00 18,9 7,5 10 5 18 10 W 1018,1 32 0,0
17.07.2018 21:00:00 22,0 7,9 13 7 32 17 W 1017,4 55 0,0
17.07.2018 20:00:00 23,0 8,0 18 10 34 18 W 1016,7 41 0,0
17.07.2018 19:00:00 24,4 8,9 24 13 41 22 WNW 1016,7 31 0,0
17.07.2018 18:00:00 25,1 8,8 24 13 42 23 W 1016,4 54 0,1
17.07.2018 17:00:00 25,9 9,8 26 14 42 23 W 1016,3 36 0,0
17.07.2018 16:00:00 25,6 11,8 17 9 34 18 W 1016,3 39 0,0
17.07.2018 15:00:00 25,9 12,6 20 11 34 19 W 1016,3 38 0,0
17.07.2018 14:00:00 24,8 13,2 22 12 32 17 WSW 1016,4 47 0,0
17.07.2018 13:00:00 24,2 14,0 19 11 32 17 WSW 1016,4 58 0,0
17.07.2018 12:00:00 23,5 13,7 16 9 26 14 W 1016,2 60 0,0
17.07.2018 11:00:00 22,4 13,1 18 10 24 13 W 1016,2 60 0,0
17.07.2018 10:00:00 20,9 12,2 19 10 25 13 WSW 1016,1 60 0,0
17.07.2018 09:00:00 19,5 12,5 13 7 20 11 WSW 1015,8 60 0,0

tt = Température de l'air
td = dewpoint
ff = Vitesse du vent
fx = gusts
dd = Direction du vent
ppp = reduced air pressure
sd = Ensoleillement
rr = Quantités de précipitations

stations d'obs. à proximité